MAXM51 CYOD-CYOD

Flight info

Callsign MAXM51
Flight time N/A
Altitude 26000
Route UOD180030
Aircraft F35/M-SDFIRY/LB1

Departure

Time 2026-04-21 22:59
Airport CFB Cold Lake (CYOD)

Arrival

Time N/A
Airport CFB Cold Lake (CYOD)
Time Latitude Longitude Altitude Speed Heading
2026-04-21 22:48 54.40688 -110.27246 1771 ft 0 kts 323°
2026-04-21 22:48 54.40694 -110.27249 1770 ft 3 kts 348°
2026-04-21 22:48 54.40734 -110.27187 1770 ft 13 kts 54°
2026-04-21 22:49 54.40788 -110.27058 1770 ft 7 kts 54°
2026-04-21 22:49 54.40805 -110.26991 1769 ft 5 kts 90°
2026-04-21 22:49 54.40779 -110.26941 1770 ft 10 kts 144°
2026-04-21 22:49 54.40723 -110.26873 1768 ft 9 kts 144°
2026-04-21 22:50 54.40689 -110.26799 1771 ft 7 kts 83°
2026-04-21 22:50 54.40717 -110.26725 1770 ft 11 kts 54°
2026-04-21 22:50 54.40782 -110.26574 1768 ft 17 kts 53°
2026-04-21 22:50 54.40850 -110.26416 1770 ft 16 kts 53°
2026-04-21 22:51 54.40912 -110.26270 1768 ft 14 kts 53°
2026-04-21 22:51 54.40969 -110.26138 1768 ft 13 kts 53°
2026-04-21 22:51 54.41020 -110.26020 1769 ft 12 kts 54°
2026-04-21 22:51 54.41066 -110.25912 1770 ft 11 kts 54°
2026-04-21 22:52 54.41090 -110.25808 1769 ft 9 kts 97°
2026-04-21 22:52 54.41081 -110.25711 1769 ft 8 kts 98°
2026-04-21 22:52 54.41074 -110.25628 1771 ft 6 kts 98°
2026-04-21 22:52 54.41071 -110.25596 1769 ft 0 kts 98°
2026-04-21 22:57 54.41067 -110.25566 1769 ft 7 kts 111°
2026-04-21 22:57 54.41009 -110.25499 1767 ft 10 kts 172°
2026-04-21 22:58 54.40959 -110.25563 1767 ft 9 kts 234°
2026-04-21 22:58 54.40905 -110.25690 1766 ft 42 kts 234°
2026-04-21 22:58 54.40489 -110.26663 1767 ft 153 kts 234°
2026-04-21 22:58 54.39746 -110.28410 1971 ft 209 kts 234°
2026-04-21 22:59 54.38773 -110.30675 2569 ft 253 kts 234°
2026-04-21 22:59 54.37703 -110.33157 3271 ft 256 kts 234°
2026-04-21 22:59 54.36622 -110.35655 3987 ft 258 kts 234°
2026-04-21 22:59 54.35448 -110.38023 4721 ft 261 kts 216°
2026-04-21 23:00 54.33800 -110.39344 5478 ft 260 kts 198°
2026-04-21 23:00 54.32038 -110.40214 6240 ft 263 kts 197°
2026-04-21 23:00 54.30249 -110.40929 6982 ft 264 kts 188°
2026-04-21 23:00 54.28398 -110.41200 7645 ft 268 kts 185°
2026-04-21 23:01 54.26547 -110.41299 8304 ft 271 kts 184°
2026-04-21 23:01 54.24660 -110.41306 8993 ft 273 kts 183°
2026-04-21 23:01 54.22750 -110.41248 9714 ft 276 kts 183°
2026-04-21 23:01 54.20825 -110.41139 10407 ft 278 kts 182°
2026-04-21 23:02 54.18885 -110.40995 11141 ft 279 kts 182°
2026-04-21 23:02 54.16928 -110.40825 11908 ft 284 kts 182°
2026-04-21 23:02 54.14954 -110.40633 12693 ft 284 kts 182°
2026-04-21 23:02 54.12968 -110.40419 13511 ft 288 kts 182°
2026-04-21 23:03 54.10961 -110.40180 14245 ft 290 kts 182°
2026-04-21 23:03 54.08928 -110.39917 14983 ft 296 kts 182°
2026-04-21 23:03 54.06871 -110.39625 15727 ft 298 kts 182°
2026-04-21 23:03 54.04793 -110.39305 16515 ft 302 kts 182°
2026-04-21 23:04 54.02705 -110.38972 17281 ft 307 kts 182°
2026-04-21 23:04 54.00574 -110.38623 18096 ft 309 kts 182°
2026-04-21 23:04 53.98419 -110.38248 18817 ft 314 kts 182°
2026-04-21 23:04 53.96229 -110.37847 19530 ft 318 kts 182°
2026-04-21 23:05 53.94012 -110.37415 20282 ft 323 kts 182°
2026-04-21 23:05 53.91762 -110.36948 21046 ft 329 kts 182°
2026-04-21 23:05 53.89470 -110.36445 21841 ft 335 kts 182°
2026-04-21 23:05 53.87146 -110.35907 22648 ft 340 kts 182°
2026-04-21 23:06 53.84776 -110.35333 23459 ft 349 kts 182°
2026-04-21 23:06 53.82308 -110.34733 24168 ft 371 kts 182°
2026-04-21 23:06 53.79819 -110.33441 24926 ft 385 kts 159°
2026-04-21 23:06 53.77697 -110.30459 25553 ft 423 kts 135°
2026-04-21 23:07 53.76210 -110.26094 25879 ft 436 kts 111°
2026-04-21 23:07 53.75698 -110.21028 26056 ft 442 kts 87°
2026-04-21 23:07 53.76242 -110.15956 26118 ft 438 kts 63°
2026-04-21 23:07 53.77755 -110.11620 26148 ft 421 kts 39°
2026-04-21 23:08 53.79973 -110.08603 26166 ft 404 kts 20°
2026-04-21 23:08 53.82498 -110.06919 26167 ft 375 kts 356°
2026-04-21 23:08 53.85014 -110.06970 26138 ft 357 kts 337°
2026-04-21 23:08 53.87402 -110.07899 26004 ft 348 kts 335°
2026-04-21 23:09 53.89760 -110.08812 25933 ft 348 kts 335°
2026-04-21 23:09 53.92087 -110.09739 25902 ft 348 kts 335°
2026-04-21 23:09 53.94434 -110.10677 25893 ft 348 kts 335°